sensor_id;sensor_type;location;lat;lon;timestamp;P1;durP1;ratioP1;P2;durP2;ratioP2
79644;SDS011;69117;47.148;18.954;2023-08-21T00:00:28;16.90;;;12.15;;
79644;SDS011;69117;47.148;18.954;2023-08-21T00:03:30;19.75;;;13.05;;
79644;SDS011;69117;47.148;18.954;2023-08-21T00:06:32;20.52;;;14.23;;
79644;SDS011;69117;47.148;18.954;2023-08-21T00:09:33;18.15;;;12.48;;
79644;SDS011;69117;47.148;18.954;2023-08-21T00:12:35;20.90;;;13.52;;
79644;SDS011;69117;47.148;18.954;2023-08-21T00:15:37;20.70;;;13.98;;
79644;SDS011;69117;47.148;18.954;2023-08-21T00:18:41;20.90;;;12.77;;
79644;SDS011;69117;47.148;18.954;2023-08-21T00:21:42;18.83;;;13.73;;
79644;SDS011;69117;47.148;18.954;2023-08-21T00:24:44;22.23;;;13.68;;
79644;SDS011;69117;47.148;18.954;2023-08-21T00:27:46;19.65;;;13.25;;
79644;SDS011;69117;47.148;18.954;2023-08-21T00:30:48;20.55;;;13.63;;
79644;SDS011;69117;47.148;18.954;2023-08-21T00:33:49;23.17;;;12.90;;
79644;SDS011;69117;47.148;18.954;2023-08-21T00:36:51;17.92;;;12.77;;
79644;SDS011;69117;47.148;18.954;2023-08-21T00:39:53;18.63;;;13.63;;
79644;SDS011;69117;47.148;18.954;2023-08-21T00:42:55;16.63;;;11.95;;
79644;SDS011;69117;47.148;18.954;2023-08-21T00:45:57;23.20;;;13.73;;
79644;SDS011;69117;47.148;18.954;2023-08-21T00:48:59;17.13;;;12.95;;
79644;SDS011;69117;47.148;18.954;2023-08-21T00:52:01;19.65;;;13.48;;
79644;SDS011;69117;47.148;18.954;2023-08-21T00:55:03;17.35;;;11.85;;
79644;SDS011;69117;47.148;18.954;2023-08-21T00:58:05;18.33;;;13.60;;
79644;SDS011;69117;47.148;18.954;2023-08-21T01:01:07;18.45;;;13.13;;
79644;SDS011;69117;47.148;18.954;2023-08-21T01:04:08;19.38;;;13.77;;
79644;SDS011;69117;47.148;18.954;2023-08-21T01:07:10;18.52;;;12.35;;
79644;SDS011;69117;47.148;18.954;2023-08-21T01:10:16;18.38;;;11.88;;
79644;SDS011;69117;47.148;18.954;2023-08-21T01:13:42;21.40;;;12.82;;
79644;SDS011;69117;47.148;18.954;2023-08-21T01:16:53;18.25;;;12.98;;
79644;SDS011;69117;47.148;18.954;2023-08-21T01:20:00;18.35;;;13.35;;
79644;SDS011;69117;47.148;18.954;2023-08-21T01:23:04;21.60;;;14.25;;
79644;SDS011;69117;47.148;18.954;2023-08-21T01:26:07;21.70;;;14.93;;
79644;SDS011;69117;47.148;18.954;2023-08-21T01:29:09;19.98;;;14.68;;
79644;SDS011;69117;47.148;18.954;2023-08-21T01:32:13;19.33;;;13.30;;
79644;SDS011;69117;47.148;18.954;2023-08-21T01:35:19;21.17;;;13.38;;
79644;SDS011;69117;47.148;18.954;2023-08-21T01:38:21;19.92;;;13.07;;
79644;SDS011;69117;47.148;18.954;2023-08-21T01:41:23;20.80;;;13.50;;
79644;SDS011;69117;47.148;18.954;2023-08-21T01:44:26;24.35;;;16.13;;
79644;SDS011;69117;47.148;18.954;2023-08-21T01:47:28;19.58;;;13.07;;
79644;SDS011;69117;47.148;18.954;2023-08-21T01:50:30;17.90;;;12.90;;
79644;SDS011;69117;47.148;18.954;2023-08-21T01:53:32;17.00;;;12.65;;
79644;SDS011;69117;47.148;18.954;2023-08-21T01:56:34;21.25;;;12.65;;
79644;SDS011;69117;47.148;18.954;2023-08-21T01:59:37;19.92;;;13.02;;
79644;SDS011;69117;47.148;18.954;2023-08-21T02:02:39;20.30;;;13.70;;
79644;SDS011;69117;47.148;18.954;2023-08-21T02:05:41;19.25;;;13.23;;
79644;SDS011;69117;47.148;18.954;2023-08-21T02:08:43;20.67;;;13.30;;
79644;SDS011;69117;47.148;18.954;2023-08-21T02:11:45;21.23;;;14.85;;
79644;SDS011;69117;47.148;18.954;2023-08-21T02:14:46;21.75;;;13.73;;
79644;SDS011;69117;47.148;18.954;2023-08-21T02:17:48;21.42;;;13.80;;
79644;SDS011;69117;47.148;18.954;2023-08-21T02:20:50;23.55;;;14.63;;
79644;SDS011;69117;47.148;18.954;2023-08-21T02:23:51;24.85;;;17.20;;
79644;SDS011;69117;47.148;18.954;2023-08-21T02:26:53;23.17;;;15.13;;
79644;SDS011;69117;47.148;18.954;2023-08-21T02:29:54;25.23;;;15.38;;
79644;SDS011;69117;47.148;18.954;2023-08-21T02:32:57;21.83;;;14.73;;
79644;SDS011;69117;47.148;18.954;2023-08-21T02:35:59;25.38;;;15.13;;
79644;SDS011;69117;47.148;18.954;2023-08-21T02:39:01;22.00;;;13.55;;
79644;SDS011;69117;47.148;18.954;2023-08-21T02:42:05;20.65;;;14.32;;
79644;SDS011;69117;47.148;18.954;2023-08-21T02:45:07;24.00;;;15.23;;
79644;SDS011;69117;47.148;18.954;2023-08-21T02:48:09;23.17;;;14.52;;
79644;SDS011;69117;47.148;18.954;2023-08-21T02:51:11;23.77;;;16.00;;
79644;SDS011;69117;47.148;18.954;2023-08-21T02:54:13;27.13;;;15.52;;
79644;SDS011;69117;47.148;18.954;2023-08-21T02:57:14;22.60;;;14.52;;
79644;SDS011;69117;47.148;18.954;2023-08-21T03:00:16;23.35;;;15.65;;
79644;SDS011;69117;47.148;18.954;2023-08-21T03:03:18;24.98;;;14.93;;
79644;SDS011;69117;47.148;18.954;2023-08-21T03:06:19;22.13;;;14.60;;
79644;SDS011;69117;47.148;18.954;2023-08-21T03:09:22;24.02;;;15.10;;
79644;SDS011;69117;47.148;18.954;2023-08-21T03:12:23;23.60;;;16.05;;
79644;SDS011;69117;47.148;18.954;2023-08-21T03:15:25;24.23;;;15.73;;
79644;SDS011;69117;47.148;18.954;2023-08-21T03:18:30;22.25;;;13.93;;
79644;SDS011;69117;47.148;18.954;2023-08-21T03:21:32;23.98;;;15.15;;
79644;SDS011;69117;47.148;18.954;2023-08-21T03:24:34;21.92;;;17.42;;
79644;SDS011;69117;47.148;18.954;2023-08-21T03:27:36;25.25;;;16.25;;
79644;SDS011;69117;47.148;18.954;2023-08-21T03:30:41;22.45;;;14.90;;
79644;SDS011;69117;47.148;18.954;2023-08-21T03:33:43;24.13;;;15.55;;
79644;SDS011;69117;47.148;18.954;2023-08-21T03:36:44;22.83;;;14.98;;
79644;SDS011;69117;47.148;18.954;2023-08-21T03:39:46;28.20;;;16.90;;
79644;SDS011;69117;47.148;18.954;2023-08-21T03:42:48;23.73;;;15.77;;
79644;SDS011;69117;47.148;18.954;2023-08-21T03:45:49;24.65;;;15.98;;
79644;SDS011;69117;47.148;18.954;2023-08-21T03:48:51;24.20;;;17.67;;
79644;SDS011;69117;47.148;18.954;2023-08-21T03:51:53;24.38;;;16.15;;
79644;SDS011;69117;47.148;18.954;2023-08-21T03:54:55;22.63;;;14.68;;
79644;SDS011;69117;47.148;18.954;2023-08-21T03:57:56;22.95;;;14.45;;
79644;SDS011;69117;47.148;18.954;2023-08-21T04:00:58;23.13;;;15.70;;
79644;SDS011;69117;47.148;18.954;2023-08-21T04:04:00;23.20;;;15.20;;
79644;SDS011;69117;47.148;18.954;2023-08-21T04:07:01;23.02;;;14.88;;
79644;SDS011;69117;47.148;18.954;2023-08-21T04:10:03;24.52;;;16.05;;
79644;SDS011;69117;47.148;18.954;2023-08-21T04:13:05;22.10;;;14.57;;
79644;SDS011;69117;47.148;18.954;2023-08-21T04:16:07;27.27;;;16.65;;
79644;SDS011;69117;47.148;18.954;2023-08-21T04:19:09;24.85;;;15.95;;
79644;SDS011;69117;47.148;18.954;2023-08-21T04:22:11;22.65;;;14.95;;
79644;SDS011;69117;47.148;18.954;2023-08-21T04:25:12;24.48;;;14.88;;
79644;SDS011;69117;47.148;18.954;2023-08-21T04:28:14;25.27;;;15.77;;
79644;SDS011;69117;47.148;18.954;2023-08-21T04:31:16;23.88;;;15.23;;
79644;SDS011;69117;47.148;18.954;2023-08-21T04:34:18;21.10;;;14.13;;
79644;SDS011;69117;47.148;18.954;2023-08-21T04:37:19;23.00;;;15.48;;
79644;SDS011;69117;47.148;18.954;2023-08-21T04:40:23;21.58;;;14.55;;
79644;SDS011;69117;47.148;18.954;2023-08-21T04:43:26;20.88;;;14.85;;
79644;SDS011;69117;47.148;18.954;2023-08-21T04:46:27;21.55;;;14.30;;
79644;SDS011;69117;47.148;18.954;2023-08-21T04:49:29;20.33;;;13.63;;
79644;SDS011;69117;47.148;18.954;2023-08-21T04:52:30;21.45;;;13.38;;
79644;SDS011;69117;47.148;18.954;2023-08-21T04:55:32;21.20;;;14.32;;
79644;SDS011;69117;47.148;18.954;2023-08-21T04:58:34;18.23;;;12.35;;
79644;SDS011;69117;47.148;18.954;2023-08-21T05:01:35;16.63;;;12.25;;
79644;SDS011;69117;47.148;18.954;2023-08-21T05:04:37;18.73;;;12.23;;
79644;SDS011;69117;47.148;18.954;2023-08-21T05:07:39;17.25;;;12.40;;
79644;SDS011;69117;47.148;18.954;2023-08-21T05:10:40;17.50;;;11.25;;
79644;SDS011;69117;47.148;18.954;2023-08-21T05:13:42;16.20;;;10.65;;
79644;SDS011;69117;47.148;18.954;2023-08-21T05:16:44;18.50;;;12.02;;
79644;SDS011;69117;47.148;18.954;2023-08-21T05:19:45;17.08;;;12.57;;
79644;SDS011;69117;47.148;18.954;2023-08-21T05:22:47;17.48;;;11.55;;
79644;SDS011;69117;47.148;18.954;2023-08-21T05:25:49;14.73;;;10.43;;
79644;SDS011;69117;47.148;18.954;2023-08-21T05:28:50;15.82;;;10.05;;
79644;SDS011;69117;47.148;18.954;2023-08-21T05:31:52;12.95;;;9.63;;
79644;SDS011;69117;47.148;18.954;2023-08-21T05:34:54;12.38;;;9.90;;
79644;SDS011;69117;47.148;18.954;2023-08-21T05:37:55;12.18;;;9.20;;
79644;SDS011;69117;47.148;18.954;2023-08-21T05:40:57;13.55;;;9.88;;
79644;SDS011;69117;47.148;18.954;2023-08-21T05:43:59;13.90;;;9.23;;
79644;SDS011;69117;47.148;18.954;2023-08-21T05:47:01;15.30;;;11.32;;
79644;SDS011;69117;47.148;18.954;2023-08-21T05:50:02;15.27;;;11.35;;
79644;SDS011;69117;47.148;18.954;2023-08-21T05:53:05;17.00;;;11.20;;
79644;SDS011;69117;47.148;18.954;2023-08-21T05:56:07;13.93;;;10.90;;
79644;SDS011;69117;47.148;18.954;2023-08-21T05:59:09;16.77;;;11.40;;
79644;SDS011;69117;47.148;18.954;2023-08-21T06:02:12;16.75;;;11.20;;
79644;SDS011;69117;47.148;18.954;2023-08-21T06:05:15;17.90;;;11.88;;
79644;SDS011;69117;47.148;18.954;2023-08-21T06:08:17;16.77;;;10.73;;
79644;SDS011;69117;47.148;18.954;2023-08-21T06:11:19;14.25;;;10.50;;
79644;SDS011;69117;47.148;18.954;2023-08-21T06:14:21;15.63;;;10.98;;
79644;SDS011;69117;47.148;18.954;2023-08-21T06:17:30;16.90;;;10.95;;
79644;SDS011;69117;47.148;18.954;2023-08-21T06:20:31;15.48;;;10.82;;
79644;SDS011;69117;47.148;18.954;2023-08-21T06:23:33;15.23;;;10.95;;
79644;SDS011;69117;47.148;18.954;2023-08-21T06:26:34;16.75;;;11.60;;
79644;SDS011;69117;47.148;18.954;2023-08-21T06:29:37;13.48;;;9.73;;
79644;SDS011;69117;47.148;18.954;2023-08-21T06:32:41;16.42;;;11.45;;
79644;SDS011;69117;47.148;18.954;2023-08-21T06:35:43;15.80;;;10.93;;
79644;SDS011;69117;47.148;18.954;2023-08-21T06:38:44;13.43;;;10.82;;
79644;SDS011;69117;47.148;18.954;2023-08-21T06:41:46;16.48;;;11.85;;
79644;SDS011;69117;47.148;18.954;2023-08-21T06:44:48;13.23;;;10.38;;
79644;SDS011;69117;47.148;18.954;2023-08-21T06:47:49;15.30;;;10.40;;
79644;SDS011;69117;47.148;18.954;2023-08-21T06:50:52;11.95;;;8.60;;
79644;SDS011;69117;47.148;18.954;2023-08-21T06:53:53;12.60;;;9.00;;
79644;SDS011;69117;47.148;18.954;2023-08-21T06:56:55;13.00;;;9.50;;
79644;SDS011;69117;47.148;18.954;2023-08-21T06:59:57;10.93;;;9.80;;
79644;SDS011;69117;47.148;18.954;2023-08-21T07:02:59;13.05;;;10.68;;
79644;SDS011;69117;47.148;18.954;2023-08-21T07:06:00;12.38;;;9.25;;
79644;SDS011;69117;47.148;18.954;2023-08-21T07:09:02;12.75;;;9.95;;
79644;SDS011;69117;47.148;18.954;2023-08-21T07:12:04;11.15;;;8.27;;
79644;SDS011;69117;47.148;18.954;2023-08-21T07:15:06;11.02;;;8.85;;
79644;SDS011;69117;47.148;18.954;2023-08-21T07:18:08;12.60;;;9.77;;
79644;SDS011;69117;47.148;18.954;2023-08-21T07:21:10;11.15;;;8.90;;
79644;SDS011;69117;47.148;18.954;2023-08-21T07:24:31;9.25;;;7.70;;
79644;SDS011;69117;47.148;18.954;2023-08-21T07:27:33;9.10;;;7.50;;
79644;SDS011;69117;47.148;18.954;2023-08-21T07:30:36;10.23;;;8.45;;
79644;SDS011;69117;47.148;18.954;2023-08-21T07:33:38;12.18;;;8.00;;
79644;SDS011;69117;47.148;18.954;2023-08-21T07:36:40;9.45;;;7.78;;
79644;SDS011;69117;47.148;18.954;2023-08-21T07:39:42;10.93;;;8.35;;
79644;SDS011;69117;47.148;18.954;2023-08-21T07:42:43;10.68;;;9.57;;
79644;SDS011;69117;47.148;18.954;2023-08-21T07:45:45;13.20;;;9.02;;
79644;SDS011;69117;47.148;18.954;2023-08-21T07:48:47;11.55;;;8.32;;
79644;SDS011;69117;47.148;18.954;2023-08-21T07:51:48;9.20;;;8.20;;
79644;SDS011;69117;47.148;18.954;2023-08-21T07:54:53;9.93;;;8.13;;
79644;SDS011;69117;47.148;18.954;2023-08-21T07:57:55;10.15;;;8.45;;
79644;SDS011;69117;47.148;18.954;2023-08-21T08:00:57;11.00;;;7.90;;
79644;SDS011;69117;47.148;18.954;2023-08-21T08:03:59;9.93;;;8.55;;
79644;SDS011;69117;47.148;18.954;2023-08-21T08:07:01;11.93;;;9.30;;
79644;SDS011;69117;47.148;18.954;2023-08-21T08:10:03;9.88;;;8.60;;
79644;SDS011;69117;47.148;18.954;2023-08-21T08:13:05;11.23;;;8.63;;
79644;SDS011;69117;47.148;18.954;2023-08-21T08:16:07;11.02;;;8.98;;
79644;SDS011;69117;47.148;18.954;2023-08-21T08:19:09;9.80;;;8.40;;
79644;SDS011;69117;47.148;18.954;2023-08-21T08:22:11;9.27;;;7.97;;
79644;SDS011;69117;47.148;18.954;2023-08-21T08:25:13;10.90;;;9.77;;
79644;SDS011;69117;47.148;18.954;2023-08-21T08:28:14;10.45;;;9.45;;
79644;SDS011;69117;47.148;18.954;2023-08-21T08:31:16;10.52;;;8.68;;
79644;SDS011;69117;47.148;18.954;2023-08-21T08:34:19;10.80;;;8.80;;
79644;SDS011;69117;47.148;18.954;2023-08-21T08:37:21;10.75;;;9.25;;
79644;SDS011;69117;47.148;18.954;2023-08-21T08:40:23;9.40;;;8.50;;
79644;SDS011;69117;47.148;18.954;2023-08-21T08:43:25;9.13;;;8.23;;
79644;SDS011;69117;47.148;18.954;2023-08-21T08:46:28;10.30;;;8.77;;
79644;SDS011;69117;47.148;18.954;2023-08-21T08:49:31;10.93;;;8.68;;
79644;SDS011;69117;47.148;18.954;2023-08-21T08:52:37;10.57;;;8.50;;
79644;SDS011;69117;47.148;18.954;2023-08-21T08:55:41;12.07;;;8.25;;
79644;SDS011;69117;47.148;18.954;2023-08-21T08:58:42;12.80;;;9.40;;
79644;SDS011;69117;47.148;18.954;2023-08-21T09:01:44;9.73;;;8.52;;
79644;SDS011;69117;47.148;18.954;2023-08-21T09:04:46;10.38;;;9.38;;
79644;SDS011;69117;47.148;18.954;2023-08-21T09:08:01;9.23;;;8.30;;
79644;SDS011;69117;47.148;18.954;2023-08-21T09:11:09;11.25;;;10.05;;
79644;SDS011;69117;47.148;18.954;2023-08-21T09:14:11;10.25;;;9.18;;
79644;SDS011;69117;47.148;18.954;2023-08-21T09:17:13;9.50;;;7.88;;
79644;SDS011;69117;47.148;18.954;2023-08-21T09:20:15;9.02;;;7.68;;
79644;SDS011;69117;47.148;18.954;2023-08-21T09:23:17;7.72;;;7.03;;
79644;SDS011;69117;47.148;18.954;2023-08-21T09:26:20;8.75;;;7.70;;
79644;SDS011;69117;47.148;18.954;2023-08-21T09:29:23;9.70;;;8.77;;
79644;SDS011;69117;47.148;18.954;2023-08-21T09:32:25;8.95;;;7.88;;
79644;SDS011;69117;47.148;18.954;2023-08-21T09:35:26;11.82;;;7.88;;
79644;SDS011;69117;47.148;18.954;2023-08-21T09:38:28;9.15;;;7.32;;
79644;SDS011;69117;47.148;18.954;2023-08-21T09:41:31;9.52;;;8.50;;
79644;SDS011;69117;47.148;18.954;2023-08-21T09:44:37;9.27;;;8.15;;
79644;SDS011;69117;47.148;18.954;2023-08-21T09:47:40;8.65;;;7.35;;
79644;SDS011;69117;47.148;18.954;2023-08-21T09:50:42;13.75;;;9.80;;
79644;SDS011;69117;47.148;18.954;2023-08-21T09:53:48;11.82;;;10.60;;
79644;SDS011;69117;47.148;18.954;2023-08-21T09:56:51;7.88;;;7.05;;
79644;SDS011;69117;47.148;18.954;2023-08-21T09:59:53;10.27;;;9.38;;
79644;SDS011;69117;47.148;18.954;2023-08-21T10:02:59;10.82;;;9.73;;
79644;SDS011;69117;47.148;18.954;2023-08-21T10:06:03;7.63;;;6.82;;
79644;SDS011;69117;47.148;18.954;2023-08-21T10:09:06;8.93;;;7.13;;
79644;SDS011;69117;47.148;18.954;2023-08-21T10:12:10;9.00;;;8.10;;
79644;SDS011;69117;47.148;18.954;2023-08-21T10:15:14;7.60;;;6.90;;
79644;SDS011;69117;47.148;18.954;2023-08-21T10:18:19;8.88;;;7.95;;
79644;SDS011;69117;47.148;18.954;2023-08-21T10:21:25;7.70;;;7.00;;
79644;SDS011;69117;47.148;18.954;2023-08-21T10:24:36;8.30;;;7.60;;
79644;SDS011;69117;47.148;18.954;2023-08-21T10:27:40;9.50;;;8.57;;
79644;SDS011;69117;47.148;18.954;2023-08-21T10:30:42;8.65;;;7.78;;
79644;SDS011;69117;47.148;18.954;2023-08-21T10:33:47;8.70;;;7.78;;
79644;SDS011;69117;47.148;18.954;2023-08-21T10:37:02;9.10;;;7.57;;
79644;SDS011;69117;47.148;18.954;2023-08-21T10:40:08;8.88;;;7.25;;
79644;SDS011;69117;47.148;18.954;2023-08-21T10:43:42;7.93;;;7.20;;
79644;SDS011;69117;47.148;18.954;2023-08-21T10:46:52;7.40;;;6.70;;
79644;SDS011;69117;47.148;18.954;2023-08-21T10:49:58;7.57;;;6.88;;
79644;SDS011;69117;47.148;18.954;2023-08-21T10:53:01;10.63;;;9.73;;
79644;SDS011;69117;47.148;18.954;2023-08-21T10:56:03;8.05;;;7.32;;
79644;SDS011;69117;47.148;18.954;2023-08-21T10:59:06;8.68;;;7.88;;
79644;SDS011;69117;47.148;18.954;2023-08-21T11:02:08;7.55;;;6.85;;
79644;SDS011;69117;47.148;18.954;2023-08-21T11:05:10;6.20;;;5.70;;
79644;SDS011;69117;47.148;18.954;2023-08-21T11:08:13;6.13;;;5.53;;
79644;SDS011;69117;47.148;18.954;2023-08-21T11:11:16;5.90;;;5.30;;
79644;SDS011;69117;47.148;18.954;2023-08-21T11:14:18;8.50;;;7.80;;
79644;SDS011;69117;47.148;18.954;2023-08-21T11:17:27;6.07;;;5.53;;
79644;SDS011;69117;47.148;18.954;2023-08-21T11:20:32;8.32;;;7.63;;
79644;SDS011;69117;47.148;18.954;2023-08-21T11:23:36;8.77;;;7.93;;
79644;SDS011;69117;47.148;18.954;2023-08-21T11:26:39;6.70;;;6.05;;
79644;SDS011;69117;47.148;18.954;2023-08-21T11:29:42;7.88;;;6.32;;
79644;SDS011;69117;47.148;18.954;2023-08-21T11:32:45;6.40;;;5.80;;
79644;SDS011;69117;47.148;18.954;2023-08-21T11:35:47;8.15;;;5.93;;
79644;SDS011;69117;47.148;18.954;2023-08-21T11:39:01;7.15;;;6.47;;
79644;SDS011;69117;47.148;18.954;2023-08-21T11:42:10;6.63;;;5.57;;
79644;SDS011;69117;47.148;18.954;2023-08-21T11:45:13;7.38;;;6.78;;
79644;SDS011;69117;47.148;18.954;2023-08-21T11:48:15;6.70;;;6.10;;
79644;SDS011;69117;47.148;18.954;2023-08-21T11:51:20;6.55;;;5.95;;
79644;SDS011;69117;47.148;18.954;2023-08-21T11:54:22;6.53;;;5.93;;
79644;SDS011;69117;47.148;18.954;2023-08-21T11:57:24;6.45;;;5.95;;
79644;SDS011;69117;47.148;18.954;2023-08-21T12:00:28;6.78;;;6.18;;
79644;SDS011;69117;47.148;18.954;2023-08-21T12:03:35;6.90;;;6.13;;
79644;SDS011;69117;47.148;18.954;2023-08-21T12:06:42;7.10;;;6.40;;
79644;SDS011;69117;47.148;18.954;2023-08-21T12:09:48;7.95;;;6.13;;
79644;SDS011;69117;47.148;18.954;2023-08-21T12:12:50;6.40;;;5.90;;
79644;SDS011;69117;47.148;18.954;2023-08-21T12:15:52;7.28;;;6.35;;
79644;SDS011;69117;47.148;18.954;2023-08-21T12:18:54;6.80;;;6.10;;
79644;SDS011;69117;47.148;18.954;2023-08-21T12:21:58;7.35;;;6.85;;
79644;SDS011;69117;47.148;18.954;2023-08-21T12:25:00;5.45;;;4.95;;
79644;SDS011;69117;47.148;18.954;2023-08-21T12:28:02;5.60;;;5.10;;
79644;SDS011;69117;47.148;18.954;2023-08-21T12:31:10;6.18;;;5.57;;
79644;SDS011;69117;47.148;18.954;2023-08-21T12:34:11;5.47;;;5.00;;
79644;SDS011;69117;47.148;18.954;2023-08-21T12:37:13;7.50;;;5.88;;
79644;SDS011;69117;47.148;18.954;2023-08-21T12:40:18;5.68;;;5.07;;
79644;SDS011;69117;47.148;18.954;2023-08-21T12:43:20;5.88;;;5.28;;
79644;SDS011;69117;47.148;18.954;2023-08-21T12:46:22;6.82;;;5.75;;
79644;SDS011;69117;47.148;18.954;2023-08-21T12:49:24;5.15;;;4.75;;
79644;SDS011;69117;47.148;18.954;2023-08-21T12:52:26;5.75;;;5.25;;
79644;SDS011;69117;47.148;18.954;2023-08-21T12:55:30;5.85;;;5.35;;
79644;SDS011;69117;47.148;18.954;2023-08-21T12:58:32;6.43;;;5.90;;
79644;SDS011;69117;47.148;18.954;2023-08-21T13:01:34;6.10;;;5.50;;
79644;SDS011;69117;47.148;18.954;2023-08-21T13:04:36;5.70;;;5.15;;
79644;SDS011;69117;47.148;18.954;2023-08-21T13:07:38;5.38;;;4.88;;
79644;SDS011;69117;47.148;18.954;2023-08-21T13:10:40;6.18;;;5.60;;
79644;SDS011;69117;47.148;18.954;2023-08-21T13:13:42;6.47;;;5.85;;
79644;SDS011;69117;47.148;18.954;2023-08-21T13:16:43;6.63;;;5.97;;
79644;SDS011;69117;47.148;18.954;2023-08-21T13:19:46;7.70;;;7.10;;
79644;SDS011;69117;47.148;18.954;2023-08-21T13:22:48;5.47;;;4.75;;
79644;SDS011;69117;47.148;18.954;2023-08-21T13:25:53;7.18;;;4.95;;
79644;SDS011;69117;47.148;18.954;2023-08-21T13:28:55;5.07;;;4.68;;
79644;SDS011;69117;47.148;18.954;2023-08-21T13:31:57;5.50;;;5.10;;
79644;SDS011;69117;47.148;18.954;2023-08-21T13:34:58;5.63;;;5.18;;
79644;SDS011;69117;47.148;18.954;2023-08-21T13:38:00;7.72;;;7.05;;
79644;SDS011;69117;47.148;18.954;2023-08-21T13:41:02;5.55;;;5.05;;
79644;SDS011;69117;47.148;18.954;2023-08-21T13:44:03;7.00;;;6.03;;
79644;SDS011;69117;47.148;18.954;2023-08-21T13:47:05;5.88;;;5.03;;
79644;SDS011;69117;47.148;18.954;2023-08-21T13:50:07;7.57;;;5.90;;
79644;SDS011;69117;47.148;18.954;2023-08-21T13:53:09;5.85;;;5.32;;
79644;SDS011;69117;47.148;18.954;2023-08-21T13:56:11;5.95;;;5.38;;
79644;SDS011;69117;47.148;18.954;2023-08-21T13:59:13;5.80;;;5.25;;
79644;SDS011;69117;47.148;18.954;2023-08-21T14:02:15;5.93;;;5.32;;
79644;SDS011;69117;47.148;18.954;2023-08-21T14:05:16;6.22;;;5.72;;
79644;SDS011;69117;47.148;18.954;2023-08-21T14:08:19;6.60;;;5.50;;
79644;SDS011;69117;47.148;18.954;2023-08-21T14:11:20;6.28;;;5.70;;
79644;SDS011;69117;47.148;18.954;2023-08-21T14:14:22;5.18;;;4.68;;
79644;SDS011;69117;47.148;18.954;2023-08-21T14:17:24;7.78;;;7.13;;
79644;SDS011;69117;47.148;18.954;2023-08-21T14:20:26;6.13;;;5.40;;
79644;SDS011;69117;47.148;18.954;2023-08-21T14:23:27;5.30;;;4.72;;
79644;SDS011;69117;47.148;18.954;2023-08-21T14:26:33;5.28;;;4.78;;
79644;SDS011;69117;47.148;18.954;2023-08-21T14:29:34;5.85;;;5.25;;
79644;SDS011;69117;47.148;18.954;2023-08-21T14:32:36;7.15;;;5.45;;
79644;SDS011;69117;47.148;18.954;2023-08-21T14:35:39;5.60;;;5.10;;
79644;SDS011;69117;47.148;18.954;2023-08-21T14:38:40;7.53;;;6.90;;
79644;SDS011;69117;47.148;18.954;2023-08-21T14:41:42;5.85;;;5.35;;
79644;SDS011;69117;47.148;18.954;2023-08-21T14:44:44;5.28;;;4.78;;
79644;SDS011;69117;47.148;18.954;2023-08-21T14:47:46;6.00;;;5.50;;
79644;SDS011;69117;47.148;18.954;2023-08-21T14:50:47;5.43;;;4.93;;
79644;SDS011;69117;47.148;18.954;2023-08-21T14:53:49;5.05;;;4.65;;
79644;SDS011;69117;47.148;18.954;2023-08-21T14:56:51;6.05;;;5.10;;
79644;SDS011;69117;47.148;18.954;2023-08-21T14:59:52;5.75;;;4.90;;
79644;SDS011;69117;47.148;18.954;2023-08-21T15:02:54;6.85;;;5.32;;
79644;SDS011;69117;47.148;18.954;2023-08-21T15:05:56;7.10;;;6.57;;
79644;SDS011;69117;47.148;18.954;2023-08-21T15:08:57;5.25;;;4.75;;
79644;SDS011;69117;47.148;18.954;2023-08-21T15:12:00;5.20;;;4.78;;
79644;SDS011;69117;47.148;18.954;2023-08-21T15:15:02;6.00;;;5.15;;
79644;SDS011;69117;47.148;18.954;2023-08-21T15:18:05;5.38;;;4.82;;
79644;SDS011;69117;47.148;18.954;2023-08-21T15:21:07;7.88;;;4.68;;
79644;SDS011;69117;47.148;18.954;2023-08-21T15:24:08;5.05;;;4.55;;
79644;SDS011;69117;47.148;18.954;2023-08-21T15:27:10;6.05;;;5.18;;
79644;SDS011;69117;47.148;18.954;2023-08-21T15:30:14;4.82;;;4.25;;
79644;SDS011;69117;47.148;18.954;2023-08-21T15:33:18;5.30;;;4.80;;
79644;SDS011;69117;47.148;18.954;2023-08-21T15:36:20;5.47;;;4.70;;
79644;SDS011;69117;47.148;18.954;2023-08-21T15:39:22;6.18;;;5.65;;
79644;SDS011;69117;47.148;18.954;2023-08-21T15:42:24;5.80;;;5.25;;
79644;SDS011;69117;47.148;18.954;2023-08-21T15:45:25;5.93;;;5.32;;
79644;SDS011;69117;47.148;18.954;2023-08-21T15:48:27;5.60;;;5.07;;
79644;SDS011;69117;47.148;18.954;2023-08-21T15:51:29;6.03;;;5.53;;
79644;SDS011;69117;47.148;18.954;2023-08-21T15:54:31;5.47;;;5.03;;
79644;SDS011;69117;47.148;18.954;2023-08-21T15:57:34;5.75;;;5.28;;
79644;SDS011;69117;47.148;18.954;2023-08-21T16:00:36;5.80;;;5.30;;
79644;SDS011;69117;47.148;18.954;2023-08-21T16:03:38;6.60;;;5.70;;
79644;SDS011;69117;47.148;18.954;2023-08-21T16:06:39;6.53;;;5.43;;
79644;SDS011;69117;47.148;18.954;2023-08-21T16:09:41;5.55;;;5.05;;
79644;SDS011;69117;47.148;18.954;2023-08-21T16:12:43;6.93;;;6.43;;
79644;SDS011;69117;47.148;18.954;2023-08-21T16:15:45;6.97;;;6.43;;
79644;SDS011;69117;47.148;18.954;2023-08-21T16:18:46;5.75;;;5.32;;
79644;SDS011;69117;47.148;18.954;2023-08-21T16:21:48;5.53;;;4.95;;
79644;SDS011;69117;47.148;18.954;2023-08-21T16:24:51;5.70;;;5.20;;
79644;SDS011;69117;47.148;18.954;2023-08-21T16:27:52;5.47;;;5.00;;
79644;SDS011;69117;47.148;18.954;2023-08-21T16:30:54;5.60;;;5.10;;
79644;SDS011;69117;47.148;18.954;2023-08-21T16:33:56;6.68;;;5.45;;
79644;SDS011;69117;47.148;18.954;2023-08-21T16:36:57;7.10;;;6.40;;
79644;SDS011;69117;47.148;18.954;2023-08-21T16:39:59;6.32;;;5.72;;
79644;SDS011;69117;47.148;18.954;2023-08-21T16:43:01;6.93;;;5.28;;
79644;SDS011;69117;47.148;18.954;2023-08-21T16:46:02;5.80;;;5.07;;
79644;SDS011;69117;47.148;18.954;2023-08-21T16:49:04;6.65;;;5.75;;
79644;SDS011;69117;47.148;18.954;2023-08-21T16:52:07;5.75;;;5.25;;
79644;SDS011;69117;47.148;18.954;2023-08-21T16:55:09;7.80;;;7.10;;
79644;SDS011;69117;47.148;18.954;2023-08-21T16:58:11;6.53;;;5.32;;
79644;SDS011;69117;47.148;18.954;2023-08-21T17:01:13;6.85;;;5.55;;
79644;SDS011;69117;47.148;18.954;2023-08-21T17:04:15;5.90;;;5.20;;
79644;SDS011;69117;47.148;18.954;2023-08-21T17:07:17;6.68;;;5.28;;
79644;SDS011;69117;47.148;18.954;2023-08-21T17:10:22;6.00;;;5.28;;
79644;SDS011;69117;47.148;18.954;2023-08-21T17:13:24;7.55;;;6.38;;
79644;SDS011;69117;47.148;18.954;2023-08-21T17:16:26;6.68;;;5.97;;
79644;SDS011;69117;47.148;18.954;2023-08-21T17:19:28;8.30;;;5.50;;
79644;SDS011;69117;47.148;18.954;2023-08-21T17:22:30;6.05;;;5.40;;
79644;SDS011;69117;47.148;18.954;2023-08-21T17:25:32;7.65;;;6.15;;
79644;SDS011;69117;47.148;18.954;2023-08-21T17:28:34;5.82;;;5.22;;
79644;SDS011;69117;47.148;18.954;2023-08-21T17:31:36;6.53;;;4.95;;
79644;SDS011;69117;47.148;18.954;2023-08-21T17:34:37;5.75;;;5.05;;
79644;SDS011;69117;47.148;18.954;2023-08-21T17:37:39;7.10;;;5.97;;
79644;SDS011;69117;47.148;18.954;2023-08-21T17:40:41;9.55;;;6.13;;
79644;SDS011;69117;47.148;18.954;2023-08-21T17:43:45;7.75;;;6.07;;
79644;SDS011;69117;47.148;18.954;2023-08-21T17:46:47;9.40;;;6.30;;
79644;SDS011;69117;47.148;18.954;2023-08-21T17:49:51;8.25;;;5.95;;